Time;durP1;ratioP1;P1;durP2;ratioP2;P2;SDS_P1;SDS_P2;PMS_P1;PMS_P2;Temp;Humidity;BMP_temperature;BMP_pressure;BME280_temperature;BME280_humidity;BME280_pressure;Samples;Min_cycle;Max_cycle;Signal;HPM_P1;HPM_P2
2021/06/04 00:00:38;;;;;;;6.23;5.00;;;;;;;14.84;55.61;101006.48;1599945;88;21134;-67
2021/06/04 00:03:10;;;;;;;6.80;5.20;;;;;;;14.82;55.92;101005.95;1592934;88;21344;-67
2021/06/04 00:05:42;;;;;;;6.60;4.80;;;;;;;14.78;56.22;101010.27;1591814;88;21553;-68
2021/06/04 00:08:10;;;;;;;10.03;5.20;;;;;;;14.76;56.41;101013.22;1576541;89;21482;-67
2021/06/04 00:10:44;;;;;;;9.13;5.80;;;;;;;14.74;56.71;101010.53;1595560;88;21370;-68
2021/06/04 00:13:28;;;;;;;6.70;5.10;;;;;;;14.72;56.68;101010.81;1600732;88;21410;-68
2021/06/04 00:16:01;;;;;;;9.37;5.77;;;;;;;14.71;56.75;101016.48;1592632;88;21429;-68
2021/06/04 00:18:29;;;;;;;6.85;4.97;;;;;;;14.70;56.81;101013.50;1594013;88;21231;-68
2021/06/04 00:21:00;;;;;;;7.20;5.30;;;;;;;14.68;56.86;101007.07;1596424;89;21132;-68
2021/06/04 00:23:27;;;;;;;9.77;5.70;;;;;;;14.66;56.92;101013.25;1601292;88;21443;-68
2021/06/04 00:25:53;;;;;;;8.30;5.10;;;;;;;14.64;56.79;101014.08;1592958;88;21241;-68
2021/06/04 00:28:20;;;;;;;6.80;5.37;;;;;;;14.63;56.75;101012.45;1597085;88;21413;-68
2021/06/04 00:30:46;;;;;;;8.00;5.40;;;;;;;14.63;56.71;101012.99;1592199;88;21919;-68
2021/06/04 00:33:13;;;;;;;6.93;5.47;;;;;;;14.62;56.79;101006.81;1607858;88;21338;-68
2021/06/04 00:35:42;;;;;;;9.80;5.33;;;;;;;14.62;56.90;101001.98;1593084;88;21156;-68
2021/06/04 00:38:08;;;;;;;7.13;5.43;;;;;;;14.61;56.97;101005.21;1596850;88;21241;-68
2021/06/04 00:40:40;;;;;;;9.40;5.33;;;;;;;14.61;57.09;101004.38;1594147;88;21196;-68
2021/06/04 00:43:08;;;;;;;11.10;5.60;;;;;;;14.59;57.12;101004.67;1594436;88;21436;-69
2021/06/04 00:45:46;;;;;;;10.07;5.27;;;;;;;14.58;57.26;101006.27;1594887;88;21342;-67
2021/06/04 00:48:14;;;;;;;8.63;5.33;;;;;;;14.57;57.25;101004.67;1595425;88;21322;-67
2021/06/04 00:50:57;;;;;;;8.97;5.50;;;;;;;14.54;57.58;101010.04;1579767;88;21631;-67
2021/06/04 00:53:26;;;;;;;9.07;5.57;;;;;;;14.52;57.78;101010.33;1595729;88;21368;-67
2021/06/04 00:55:55;;;;;;;9.27;6.20;;;;;;;14.49;57.83;101010.03;1596298;88;21262;-67
2021/06/04 00:58:30;;;;;;;8.37;6.10;;;;;;;14.47;58.03;101010.30;1595986;89;21346;-68
2021/06/04 01:00:58;;;;;;;8.13;5.90;;;;;;;14.46;58.24;101007.89;1595577;88;21770;-68
2021/06/04 01:03:29;;;;;;;8.53;5.67;;;;;;;14.45;58.20;101003.60;1602659;88;21338;-68
2021/06/04 01:06:09;;;;;;;9.03;5.53;;;;;;;14.43;58.12;101013.80;1576521;89;21400;-68
2021/06/04 01:08:48;;;;;;;8.17;5.70;;;;;;;14.43;58.24;101011.12;1593692;89;21276;-67
2021/06/04 01:11:50;;;;;;;9.60;5.60;;;;;;;14.42;58.25;101010.32;1595869;88;21223;-68
2021/06/04 01:15:16;;;;;;;9.88;6.08;;;;;;;14.42;58.25;101013.01;1593361;87;21181;-68
2021/06/04 01:18:20;;;;;;;9.00;6.00;;;;;;;14.43;58.19;101009.77;1592639;88;21130;-68
2021/06/04 01:20:55;;;;;;;10.43;5.57;;;;;;;14.42;58.40;101013.01;1597975;88;21356;-68
2021/06/04 01:23:51;;;;;;;9.70;6.40;;;;;;;14.40;58.17;101007.63;1600020;88;21911;-68
2021/06/04 01:26:30;;;;;;;10.10;5.87;;;;;;;14.41;58.18;101006.54;1594696;88;21416;-68
2021/06/04 01:29:14;;;;;;;8.43;6.27;;;;;;;14.41;58.21;101010.58;1592431;89;21278;-67
2021/06/04 01:31:53;;;;;;;11.67;6.37;;;;;;;14.41;58.24;101018.64;1594958;88;21304;-68
2021/06/04 01:34:25;;;;;;;12.67;6.23;;;;;;;14.39;58.32;101014.89;1603829;88;21842;-67
2021/06/04 01:37:01;;;;;;;9.40;5.77;;;;;;;14.40;58.43;101022.41;1594994;88;21235;-68
2021/06/04 01:39:34;;;;;;;9.03;6.30;;;;;;;14.37;58.45;101018.38;1595118;88;21294;-68
2021/06/04 01:42:03;;;;;;;8.73;5.45;;;;;;;14.37;58.61;101011.66;1577287;88;21185;-67
2021/06/04 01:44:40;;;;;;;9.80;6.00;;;;;;;14.36;58.84;101020.00;1601070;89;21052;-69
2021/06/04 01:47:12;;;;;;;10.57;5.80;;;;;;;14.34;58.98;101016.22;1595555;88;21425;-67
2021/06/04 01:49:42;;;;;;;7.80;5.40;;;;;;;14.33;59.27;101012.48;1595117;88;21214;-68
2021/06/04 01:52:24;;;;;;;8.40;5.50;;;;;;;14.31;59.49;101016.77;1606015;88;21514;-68
2021/06/04 01:55:15;;;;;;;9.07;5.03;;;;;;;14.31;59.65;101018.94;1598438;88;21497;-68
2021/06/04 01:57:56;;;;;;;10.63;5.70;;;;;;;14.30;59.74;101018.66;1595190;88;21899;-69
2021/06/04 02:00:36;;;;;;;7.70;5.20;;;;;;;14.31;59.76;101016.77;1599985;88;21257;-67
2021/06/04 02:03:07;;;;;;;8.83;5.30;;;;;;;14.31;59.74;101022.97;1595563;88;21272;-69
2021/06/04 02:05:37;;;;;;;8.53;5.17;;;;;;;14.31;59.80;101021.62;1602822;88;21258;-67
2021/06/04 02:08:08;;;;;;;9.10;5.63;;;;;;;14.32;59.79;101017.05;1597615;88;21375;-68
2021/06/04 02:10:42;;;;;;;6.60;4.90;;;;;;;14.30;60.00;101022.68;1598919;88;21214;-67
2021/06/04 02:13:10;;;;;;;7.73;5.73;;;;;;;14.31;60.05;101014.91;1605151;88;21195;-68
2021/06/04 02:15:43;;;;;;;9.07;5.50;;;;;;;14.32;60.32;101022.42;1605360;88;21283;-68
2021/06/04 02:18:35;;;;;;;9.50;6.00;;;;;;;14.31;60.37;101017.59;1607322;87;21341;-69
2021/06/04 02:21:18;;;;;;;8.50;5.30;;;;;;;14.29;60.43;101020.28;1606016;88;21364;-69
2021/06/04 02:24:13;;;;;;;7.93;5.53;;;;;;;14.28;60.35;101019.98;1605071;87;21394;-68
2021/06/04 02:26:48;;;;;;;9.10;5.47;;;;;;;14.28;60.29;101019.48;1592792;88;21863;-68
2021/06/04 02:29:27;;;;;;;11.30;5.77;;;;;;;14.30;60.24;101017.30;1594677;88;21234;-67
2021/06/04 02:32:02;;;;;;;9.83;5.93;;;;;;;14.30;60.32;101024.03;1604432;88;21116;-68
2021/06/04 02:34:52;;;;;;;8.10;5.50;;;;;;;14.29;60.20;101027.80;1595004;88;22008;-69
2021/06/04 02:37:31;;;;;;;8.33;5.70;;;;;;;14.30;60.17;101023.22;1598923;87;21270;-68
2021/06/04 02:40:14;;;;;;;8.37;6.30;;;;;;;14.31;60.19;101022.14;1593184;88;21122;-67
2021/06/04 02:42:52;;;;;;;7.60;6.15;;;;;;;14.31;60.23;101020.28;1600762;88;21281;-68
2021/06/04 02:45:37;;;;;;;7.97;5.50;;;;;;;14.32;60.27;101023.77;1598231;88;21238;-69
2021/06/04 02:48:15;;;;;;;7.90;5.67;;;;;;;14.33;60.34;101024.03;1595914;88;21835;-68
2021/06/04 02:51:13;;;;;;;8.23;5.43;;;;;;;14.34;60.37;101021.59;1598051;88;21281;-69
2021/06/04 02:53:50;;;;;;;6.60;5.17;;;;;;;14.36;60.44;101033.44;1594875;88;21313;-68
2021/06/04 02:56:34;;;;;;;8.53;5.70;;;;;;;14.36;60.65;101028.06;1590507;88;21270;-68
2021/06/04 02:59:07;;;;;;;9.00;5.67;;;;;;;14.37;60.78;101031.81;1570612;90;21293;-69
2021/06/04 03:01:38;;;;;;;8.07;5.80;;;;;;;14.39;60.73;101027.52;1570906;90;21386;-68
2021/06/04 03:04:06;;;;;;;9.50;6.33;;;;;;;14.41;60.72;101028.04;1566230;90;21380;-68
2021/06/04 03:06:40;;;;;;;10.13;5.23;;;;;;;14.41;60.61;101026.70;1592566;88;21132;-67
2021/06/04 03:09:11;;;;;;;;;;;;;;;14.43;60.74;101027.24;1598145;88;21379;-68
2021/06/04 03:11:38;;;;;;;8.37;5.67;;;;;;;14.44;60.84;101033.67;1595459;88;20199;-68
2021/06/04 03:14:06;;;;;;;9.00;5.40;;;;;;;14.45;60.95;101033.97;1597506;88;21188;-68
2021/06/04 03:16:35;;;;;;;8.90;5.53;;;;;;;14.48;61.10;101029.94;1597406;88;21745;-68
2021/06/04 03:19:08;;;;;;;8.37;5.63;;;;;;;14.52;61.04;101043.13;1596518;88;21400;-68
2021/06/04 03:21:43;;;;;;;8.60;5.43;;;;;;;14.54;61.33;101038.27;1597298;88;21841;-67
2021/06/04 03:24:13;;;;;;;7.23;5.03;;;;;;;14.57;61.37;101031.00;1589980;88;21357;-68
2021/06/04 03:26:43;;;;;;;8.23;5.60;;;;;;;14.61;61.35;101022.69;1599594;88;21220;-68
2021/06/04 03:29:14;;;;;;;6.90;5.20;;;;;;;14.65;61.18;101031.81;1596472;88;21261;-68
2021/06/04 03:31:47;;;;;;;9.13;5.03;;;;;;;14.69;61.01;101026.69;1600207;88;26908;-69
2021/06/04 03:34:14;;;;;;;8.23;5.60;;;;;;;14.73;60.95;101038.50;1604080;88;21028;-68
2021/06/04 03:36:43;;;;;;;10.73;5.23;;;;;;;14.77;61.02;101044.94;1587559;88;21144;-68
2021/06/04 03:39:18;;;;;;;8.67;5.13;;;;;;;14.79;60.99;101041.45;1604091;88;21360;-67
2021/06/04 03:41:48;;;;;;;7.33;5.20;;;;;;;14.83;61.04;101037.13;1590396;88;21165;-69
2021/06/04 03:44:16;;;;;;;9.67;5.33;;;;;;;14.87;61.12;101030.66;1581220;89;21465;-67
2021/06/04 03:46:43;;;;;;;7.57;4.97;;;;;;;14.93;60.99;101034.41;1600208;88;21169;-69
2021/06/04 03:49:13;;;;;;;9.60;5.57;;;;;;;15.01;60.64;101030.36;1596001;88;21960;-67
2021/06/04 03:51:41;;;;;;;9.17;5.87;;;;;;;15.08;60.49;101033.56;1597372;88;21387;-67
2021/06/04 03:54:12;;;;;;;6.63;5.20;;;;;;;15.14;59.97;101029.77;1604435;87;21493;-68
2021/06/04 03:56:39;;;;;;;6.12;4.97;;;;;;;15.23;59.74;101028.64;1594440;88;21952;-68
2021/06/04 03:59:06;;;;;;;7.07;5.50;;;;;;;15.32;59.53;101033.72;1613859;88;21043;-67
2021/06/04 04:01:37;;;;;;;9.60;5.87;;;;;;;15.45;58.96;101026.92;1599694;88;21479;-67
2021/06/04 04:04:05;;;;;;;8.18;5.28;;;;;;;15.45;58.96;101026.92;1602410;88;21612;-69
2021/06/04 04:06:32;;;;;;;7.90;5.50;;;;;;;15.53;58.91;101029.56;1595846;88;21152;-68
2021/06/04 04:09:01;;;;;;;9.27;5.53;;;;;;;15.59;58.71;101027.91;1590227;88;21948;-68
2021/06/04 04:11:27;;;;;;;11.20;5.60;;;;;;;15.63;58.73;101024.94;1592194;88;21536;-68
2021/06/04 04:13:55;;;;;;;10.17;5.63;;;;;;;15.71;58.57;101033.79;1579160;88;21385;-68
2021/06/04 04:16:23;;;;;;;7.33;5.37;;;;;;;15.76;58.62;101027.58;1594505;88;21559;-69
2021/06/04 04:18:49;;;;;;;8.53;4.97;;;;;;;15.86;58.46;101028.86;1595540;88;21817;-68
2021/06/04 04:21:17;;;;;;;6.87;4.73;;;;;;;15.89;57.94;101032.34;1592984;88;22141;-67
2021/06/04 04:23:51;;;;;;;6.23;5.13;;;;;;;15.95;57.75;101028.49;1600973;88;21611;-68
2021/06/04 04:26:21;;;;;;;7.73;4.60;;;;;;;15.95;57.75;101028.49;1600564;88;21609;-69
2021/06/04 04:28:49;;;;;;;7.20;5.00;;;;;;;16.02;57.06;101007.97;1596042;88;21588;-68
2021/06/04 04:31:20;;;;;;;7.63;4.63;;;;;;;16.14;56.97;101026.47;1595508;88;21779;-68
2021/06/04 04:33:47;;;;;;;6.53;4.80;;;;;;;16.28;56.25;101026.62;1595856;88;21792;-68
2021/06/04 04:36:17;;;;;;;9.57;5.13;;;;;;;16.41;55.02;101035.39;1600488;88;21756;-69
2021/06/04 04:38:44;;;;;;;8.80;4.90;;;;;;;16.50;54.36;101036.94;1602596;88;21802;-68
2021/06/04 04:41:10;;;;;;;6.77;4.50;;;;;;;16.56;54.55;101037.95;1596140;88;21748;-67
2021/06/04 04:43:45;;;;;;;6.63;4.77;;;;;;;16.63;53.40;101038.41;1599254;88;21844;-68
2021/06/04 04:46:13;;;;;;;6.85;4.70;;;;;;;16.63;53.40;101038.41;1598582;88;21794;-68
2021/06/04 04:48:40;;;;;;;9.07;5.07;;;;;;;16.68;53.06;101046.19;1601862;88;21111;-68
2021/06/04 04:51:07;;;;;;;9.70;4.37;;;;;;;16.69;53.02;101047.81;1593701;88;21826;-68
2021/06/04 04:53:36;;;;;;;8.93;4.80;;;;;;;16.77;52.85;101046.66;1597054;88;21783;-69
2021/06/04 04:56:05;;;;;;;6.87;4.83;;;;;;;16.91;52.49;101046.77;1598310;88;21709;-69
2021/06/04 04:58:33;;;;;;;7.37;4.83;;;;;;;17.06;52.60;101040.40;1597331;88;21883;-68
2021/06/04 05:01:00;;;;;;;6.13;4.50;;;;;;;17.21;51.89;101040.22;1595301;88;21884;-69
2021/06/04 05:03:27;;;;;;;8.03;5.17;;;;;;;17.32;51.80;101043.03;1596561;88;21620;-69
2021/06/04 05:05:53;;;;;;;8.00;4.80;;;;;;;17.44;51.07;101042.62;1604883;88;21151;-68
2021/06/04 05:08:21;;;;;;;6.40;4.83;;;;;;;17.66;51.11;101041.22;1595817;89;21769;-69
2021/06/04 05:10:48;;;;;;;6.70;4.30;;;;;;;17.66;51.11;101041.22;1596423;88;21123;-68
2021/06/04 05:13:15;;;;;;;5.03;4.43;;;;;;;17.82;50.45;101041.28;1593525;88;21036;-68
2021/06/04 05:15:42;;;;;;;6.63;4.40;;;;;;;17.82;50.45;101041.28;1596669;88;21186;-69
2021/06/04 05:18:11;;;;;;;5.53;3.93;;;;;;;17.89;50.21;101041.70;1596505;89;21914;-68
2021/06/04 05:20:38;;;;;;;5.87;4.67;;;;;;;17.98;49.81;101039.16;1599331;88;21072;-69
2021/06/04 05:23:05;;;;;;;7.10;4.57;;;;;;;18.07;49.24;101036.03;1596130;88;21073;-66
2021/06/04 05:25:36;;;;;;;8.70;4.30;;;;;;;18.13;48.82;101040.79;1604810;88;21131;-68
2021/06/04 05:28:04;;;;;;;9.23;4.35;;;;;;;18.19;48.97;101042.31;1599763;88;21059;-68
2021/06/04 05:30:35;;;;;;;7.20;4.70;;;;;;;18.25;48.76;101042.48;1598248;88;21150;-68
2021/06/04 05:33:02;;;;;;;8.37;4.60;;;;;;;18.28;49.10;101041.89;1595552;88;21660;-68
2021/06/04 05:35:30;;;;;;;6.30;4.10;;;;;;;18.38;49.93;101040.36;1600853;88;21158;-69
2021/06/04 05:37:57;;;;;;;5.43;4.20;;;;;;;18.50;50.68;101040.70;1598940;88;21117;-68
2021/06/04 05:40:33;;;;;;;5.97;4.10;;;;;;;18.62;50.45;101042.09;1591726;88;21650;-69
2021/06/04 05:43:00;;;;;;;6.03;4.33;;;;;;;18.71;49.72;101036.25;1595266;88;21175;-69
2021/06/04 05:45:30;;;;;;;8.00;4.10;;;;;;;18.81;50.13;101035.28;1598651;88;21120;-68
2021/06/04 05:47:56;;;;;;;5.27;4.10;;;;;;;18.86;49.91;101033.30;1594601;88;21087;-70
2021/06/04 05:50:31;;;;;;;7.87;4.07;;;;;;;18.81;49.59;101041.50;1591032;88;21576;-69
2021/06/04 05:53:00;;;;;;;6.00;3.93;;;;;;;18.75;49.70;101045.40;1594698;88;21568;-68
2021/06/04 05:55:28;;;;;;;8.03;4.10;;;;;;;18.73;50.08;101047.06;1597093;89;21413;-70
2021/06/04 05:57:55;;;;;;;7.37;4.17;;;;;;;18.74;49.41;101037.84;1595326;88;21132;-68
2021/06/04 06:00:33;;;;;;;6.30;3.90;;;;;;;18.80;48.99;101039.91;1594002;88;21090;-70
2021/06/04 06:03:00;;;;;;;6.93;4.20;;;;;;;18.90;48.62;101045.11;1598682;88;21131;-68
2021/06/04 06:05:26;;;;;;;6.77;4.00;;;;;;;19.00;49.24;101041.41;1598783;88;21105;-68
2021/06/04 06:07:54;;;;;;;7.13;4.13;;;;;;;19.08;49.75;101037.17;1602237;88;22292;-68
2021/06/04 06:10:25;;;;;;;11.07;4.60;;;;;;;19.16;49.89;101043.25;1598671;88;21036;-68
2021/06/04 06:12:51;;;;;;;10.90;4.83;;;;;;;19.21;49.30;101037.16;1595721;88;21128;-69
2021/06/04 06:15:20;;;;;;;5.67;3.70;;;;;;;19.27;49.59;101033.80;1592729;88;21160;-68
2021/06/04 06:17:47;;;;;;;6.17;3.90;;;;;;;19.35;49.30;101035.80;1579871;88;21248;-68
2021/06/04 06:20:17;;;;;;;8.40;3.97;;;;;;;19.44;47.96;101035.87;1595001;88;21141;-68
2021/06/04 06:22:44;;;;;;;7.00;3.70;;;;;;;19.54;48.23;101038.34;1591835;88;21038;-68
2021/06/04 06:25:17;;;;;;;5.23;4.10;;;;;;;19.65;48.37;101039.77;1595454;88;21061;-68
2021/06/04 06:27:44;;;;;;;10.67;3.93;;;;;;;19.78;47.93;101035.97;1595835;88;21153;-68
2021/06/04 06:30:18;;;;;;;7.93;3.70;;;;;;;19.94;46.79;101035.85;1591921;88;21563;-68
2021/06/04 06:32:45;;;;;;;6.07;3.60;;;;;;;20.11;47.03;101027.03;1613086;88;21156;-69
2021/06/04 06:35:17;;;;;;;7.13;3.97;;;;;;;20.25;46.38;101031.02;1601159;88;22112;-69
2021/06/04 06:37:43;;;;;;;5.40;3.83;;;;;;;20.36;46.55;101032.34;1604320;88;26563;-69
2021/06/04 06:40:12;;;;;;;6.23;4.10;;;;;;;20.44;45.44;101036.23;1599963;88;21082;-68
2021/06/04 06:42:39;;;;;;;8.10;3.30;;;;;;;20.49;45.13;101029.30;1596879;88;21570;-67
2021/06/04 06:45:09;;;;;;;6.23;2.40;;;;;;;20.50;43.84;101031.72;1598352;88;21157;-68
2021/06/04 06:47:38;;;;;;;6.30;3.33;;;;;;;20.50;41.24;101024.93;1595610;88;21041;-69
2021/06/04 06:50:07;;;;;;;6.70;3.50;;;;;;;20.57;41.97;101025.87;1599200;88;21023;-68
2021/06/04 06:52:34;;;;;;;6.77;3.70;;;;;;;20.65;43.53;101018.86;1597691;88;21560;-68
2021/06/04 06:55:01;;;;;;;6.50;3.37;;;;;;;20.75;42.97;101028.08;1593212;88;21174;-67
2021/06/04 06:57:28;;;;;;;8.13;3.80;;;;;;;20.85;43.06;101022.36;1599194;88;21249;-67
2021/06/04 06:59:56;;;;;;;6.10;3.30;;;;;;;20.98;42.24;101026.08;1580413;88;21190;-69
2021/06/04 07:02:23;;;;;;;3.90;2.17;;;;;;;21.08;41.34;101021.70;1593272;88;21041;-68
2021/06/04 07:04:50;;;;;;;3.77;1.90;;;;;;;21.14;37.76;101028.59;1592103;88;21120;-68
2021/06/04 07:07:21;;;;;;;4.27;1.97;;;;;;;21.20;37.51;101017.03;1582629;89;21507;-69
2021/06/04 07:09:48;;;;;;;5.23;2.10;;;;;;;21.26;37.35;101017.13;1592687;89;21525;-69
2021/06/04 07:12:15;;;;;;;6.27;2.60;;;;;;;21.29;37.47;101015.92;1591828;88;21024;-68
2021/06/04 07:14:43;;;;;;;6.30;2.97;;;;;;;21.33;35.51;101018.02;1597701;88;21058;-69
2021/06/04 07:17:09;;;;;;;4.73;2.13;;;;;;;21.33;35.84;101019.37;1600966;88;21126;-70
2021/06/04 07:19:37;;;;;;;6.93;2.90;;;;;;;21.39;35.68;101014.85;1596337;88;38169;-68
2021/06/04 07:22:04;;;;;;;5.83;2.73;;;;;;;21.46;37.46;101017.09;1603257;88;21576;-66
2021/06/04 07:24:31;;;;;;;5.80;2.13;;;;;;;21.43;37.56;101004.94;1593917;88;21091;-68
2021/06/04 07:26:59;;;;;;;5.20;2.13;;;;;;;21.44;35.34;101020.11;1569910;90;21549;-68
2021/06/04 07:29:28;;;;;;;3.37;2.10;;;;;;;21.51;32.40;101019.07;1591697;88;21575;-70
2021/06/04 07:31:55;;;;;;;7.13;1.90;;;;;;;21.52;31.90;101015.81;1593430;88;21619;-72
2021/06/04 07:34:23;;;;;;;5.03;1.90;;;;;;;21.56;32.72;101008.62;1603393;88;21157;-67
2021/06/04 07:49:14;;;;;;;5.67;1.70;;;;;;;21.74;32.21;101000.67;1828354;77;26829;-68
2021/06/04 07:51:45;;;;;;;5.80;2.20;;;;;;;21.96;32.42;101004.34;1782581;78;21578;-69
2021/06/04 07:54:12;;;;;;;;;;;;;;;22.16;31.50;101000.16;1807310;77;21092;-69
2021/06/04 07:56:42;;;;;;;3.53;1.90;;;;;;;22.16;32.44;100994.72;1778947;78;20150;-70
2021/06/04 07:59:10;;;;;;;5.12;2.15;;;;;;;22.17;32.44;101001.19;1814019;77;21603;-68
2021/06/04 08:01:40;;;;;;;5.97;1.90;;;;;;;22.18;31.55;101002.80;1815171;78;21002;-68
2021/06/04 08:04:08;;;;;;;3.40;1.47;;;;;;;22.15;31.35;100998.02;1814166;77;21111;-69
2021/06/04 08:06:35;;;;;;;3.60;2.00;;;;;;;22.16;30.82;100989.28;1809462;77;21138;-68
2021/06/04 08:09:05;;;;;;;4.13;1.80;;;;;;;22.24;31.25;100995.25;1811295;77;21074;-69
2021/06/04 08:11:39;;;;;;;5.60;2.10;;;;;;;22.21;30.03;100994.53;1790811;78;21058;-70
2021/06/04 08:14:10;;;;;;;6.07;1.70;;;;;;;22.15;30.22;100993.93;1786745;78;21195;-68
2021/06/04 08:16:39;;;;;;;3.52;1.90;;;;;;;22.08;31.20;100993.60;1789900;78;21155;-69
2021/06/04 08:19:06;;;;;;;5.50;1.93;;;;;;;22.01;31.21;100991.91;1799002;78;21113;-69
2021/06/04 08:21:40;;;;;;;3.67;2.10;;;;;;;21.96;31.42;100989.37;1790790;78;21012;-68
2021/06/04 08:24:10;;;;;;;3.70;1.97;;;;;;;21.86;31.76;101004.68;1791594;78;21079;-69
2021/06/04 08:26:37;;;;;;;4.63;2.17;;;;;;;21.77;30.93;101001.39;1788286;78;21528;-69
2021/06/04 08:29:04;;;;;;;4.40;1.90;;;;;;;21.70;31.64;101001.09;1794458;78;21065;-67
2021/06/04 08:31:31;;;;;;;5.90;2.23;;;;;;;21.66;31.00;101004.22;1786252;78;22337;-68
2021/06/04 08:34:00;;;;;;;2.70;1.57;;;;;;;21.52;31.15;100996.80;1791214;79;21264;-68
2021/06/04 08:36:31;;;;;;;7.07;2.50;;;;;;;21.49;31.86;101009.66;1783489;78;21085;-68
2021/06/04 08:39:02;;;;;;;5.03;2.17;;;;;;;21.54;31.20;100999.41;1791137;78;21137;-68
2021/06/04 08:41:55;;;;;;;5.40;2.00;;;;;;;21.44;31.63;101001.66;1787144;78;21003;-69
2021/06/04 08:45:04;;;;;;;4.30;1.90;;;;;;;21.36;31.74;101005.18;1795692;78;21246;-68
2021/06/04 08:47:34;;;;;;;3.70;1.80;;;;;;;21.30;31.61;100997.70;1801609;77;21069;-69
2021/06/04 08:50:26;;;;;;;5.30;2.20;;;;;;;21.33;32.03;100994.34;1807558;77;20998;-69
2021/06/04 08:53:10;;;;;;;6.07;1.90;;;;;;;21.41;32.27;101007.72;1782385;79;21019;-69
2021/06/04 08:56:03;;;;;;;4.60;2.00;;;;;;;21.47;32.86;101010.53;1778289;79;21025;-68
2021/06/04 08:58:47;;;;;;;5.27;1.93;;;;;;;21.61;32.30;101004.92;1787630;79;21561;-68
2021/06/04 09:01:22;;;;;;;5.73;1.70;;;;;;;21.76;30.73;100997.09;1786776;78;21489;-68
2021/06/04 09:04:10;;;;;;;5.97;1.80;;;;;;;21.99;30.35;100990.89;1785550;79;21593;-68
2021/06/04 09:06:48;;;;;;;4.03;1.80;;;;;;;22.14;30.51;100984.12;1791325;79;21088;-67
2021/06/04 09:09:29;;;;;;;7.83;2.17;;;;;;;22.30;30.65;100990.44;1790440;78;21617;-69
2021/06/04 09:11:58;;;;;;;;;;;;;;;22.33;30.44;100991.14;1796232;78;21131;-67
2021/06/04 09:14:26;;;;;;;5.17;2.00;;;;;;;22.23;29.85;100990.94;1788701;79;20173;-67
2021/06/04 09:17:24;;;;;;;8.90;2.50;;;;;;;22.06;29.75;100984.95;1803001;77;21037;-68
2021/06/04 09:20:09;;;;;;;4.87;2.10;;;;;;;21.99;30.58;100990.09;1778624;78;21014;-67
2021/06/04 09:22:43;;;;;;;6.20;1.63;;;;;;;22.10;29.71;100976.37;1815354;77;21057;-68
2021/06/04 09:25:15;;;;;;;5.17;2.00;;;;;;;22.21;29.12;100981.75;1777979;78;21122;-67
2021/06/04 09:27:48;;;;;;;;;;;;;;;22.34;29.60;100980.48;1803108;77;21039;-67
2021/06/04 09:30:24;;;;;;;4.47;1.87;;;;;;;22.46;29.94;100987.41;1807336;77;20194;-67
2021/06/04 09:33:05;;;;;;;4.37;1.90;;;;;;;22.49;29.52;100981.31;1779322;78;21560;-68
2021/06/04 09:35:32;;;;;;;4.08;1.50;;;;;;;22.42;29.73;100979.67;1770411;79;21568;-67
2021/06/04 09:38:19;;;;;;;4.23;1.50;;;;;;;22.37;30.09;100979.84;1775425;79;21977;-68
2021/06/04 09:40:46;;;;;;;4.07;1.80;;;;;;;22.31;30.42;100983.32;1752508;78;21595;-68
2021/06/04 09:43:30;;;;;;;6.40;1.80;;;;;;;22.22;30.66;100975.17;1789901;78;21120;-67
2021/06/04 09:46:00;;;;;;;4.27;1.67;;;;;;;22.16;30.90;100984.63;1777858;79;21515;-66
2021/06/04 09:48:45;;;;;;;7.03;1.93;;;;;;;22.16;31.23;100983.27;1803622;79;21046;-67
2021/06/04 09:51:22;;;;;;;3.83;1.70;;;;;;;22.23;31.69;100972.69;1795540;78;21105;-67
2021/06/04 09:53:51;;;;;;;6.77;1.83;;;;;;;22.35;31.16;100978.02;1792764;78;20943;-67
2021/06/04 09:56:32;;;;;;;5.30;2.00;;;;;;;22.48;30.59;100978.37;1786588;79;21054;-67
2021/06/04 09:59:04;;;;;;;5.62;1.70;;;;;;;22.48;29.98;100977.01;1787389;79;26683;-67
2021/06/04 10:01:34;;;;;;;4.22;1.70;;;;;;;22.28;29.93;100973.63;1791346;78;21010;-68
2021/06/04 10:04:06;;;;;;;3.65;1.92;;;;;;;22.04;29.73;100970.87;1790426;78;21243;-67
2021/06/04 10:06:39;;;;;;;4.03;1.72;;;;;;;21.91;30.20;100974.02;1778234;78;21556;-67
2021/06/04 10:09:24;;;;;;;5.70;1.73;;;;;;;21.98;31.51;100968.08;1773573;79;21422;-67
2021/06/04 10:11:55;;;;;;;4.17;1.43;;;;;;;22.14;30.96;100971.88;1795088;78;21470;-67
2021/06/04 10:14:50;;;;;;;3.33;1.52;;;;;;;22.32;30.51;100965.06;1790459;78;20930;-67
2021/06/04 10:20:38;;;;;;;4.50;1.70;;;;;;;22.75;29.18;100959.41;1782534;79;20951;-68
2021/06/04 10:23:25;;;;;;;6.37;2.00;;;;;;;22.85;28.80;100960.95;1801113;78;21086;-68
2021/06/04 10:25:59;;;;;;;5.23;1.90;;;;;;;22.76;28.74;100960.20;1799288;79;21051;-68
2021/06/04 10:28:37;;;;;;;4.23;1.40;;;;;;;22.58;30.08;100963.59;1778930;78;21030;-68
2021/06/04 10:31:23;;;;;;;4.60;1.70;;;;;;;22.43;30.28;100967.08;1785279;78;21355;-67
2021/06/04 10:34:25;;;;;;;5.33;1.63;;;;;;;22.29;30.36;100963.78;1785331;78;21170;-67
2021/06/04 10:36:56;;;;;;;5.27;1.60;;;;;;;22.15;29.77;100965.36;1771694;78;21022;-68
2021/06/04 10:39:38;;;;;;;;;;;;;;;22.16;29.42;100955.27;1788932;78;21062;-67
2021/06/04 10:42:48;;;;;;;4.73;1.70;;;;;;;22.28;29.24;100958.12;1792373;78;20255;-66
2021/06/04 10:45:22;;;;;;;5.20;1.83;;;;;;;22.53;29.22;100952.31;1788125;78;22383;-68
2021/06/04 10:48:47;;;;;;;6.07;1.53;;;;;;;22.82;28.52;100944.70;1791462;79;21014;-67
2021/06/04 10:51:40;;;;;;;4.97;1.53;;;;;;;23.00;28.24;100948.69;1797867;78;21082;-67
2021/06/04 10:55:00;;;;;;;5.43;1.63;;;;;;;23.16;27.74;100945.07;1794166;78;21088;-68
2021/06/04 10:57:40;;;;;;;3.97;1.80;;;;;;;23.09;27.31;100954.31;1816096;77;21186;-68
2021/06/04 11:00:24;;;;;;;2.53;1.40;;;;;;;22.83;28.14;100953.66;1773791;78;21806;-66
2021/06/04 11:03:16;;;;;;;3.63;1.83;;;;;;;22.66;28.88;100954.00;1785449;78;21053;-67
2021/06/04 11:05:54;;;;;;;4.83;1.70;;;;;;;22.57;28.87;100954.60;1784364;78;21163;-68
2021/06/04 11:09:07;;;;;;;6.37;1.80;;;;;;;22.67;29.18;100947.98;1791672;79;21552;-67
2021/06/04 11:11:59;;;;;;;5.30;1.70;;;;;;;22.88;28.43;100944.75;1777442;78;21074;-68
2021/06/04 11:15:09;;;;;;;6.00;2.00;;;;;;;23.18;28.17;100942.79;1787781;78;21846;-69
2021/06/04 11:17:49;;;;;;;7.33;1.60;;;;;;;23.38;28.55;100940.39;1791664;78;21033;-67
2021/06/04 11:20:23;;;;;;;7.05;1.87;;;;;;;23.35;27.43;100949.23;1789129;78;20990;-67
2021/06/04 11:22:59;;;;;;;5.07;1.60;;;;;;;23.14;27.47;100941.87;1786441;78;21014;-69
2021/06/04 11:25:52;;;;;;;3.80;1.70;;;;;;;23.00;27.06;100948.16;1800517;78;21057;-67
2021/06/04 11:28:50;;;;;;;6.13;1.60;;;;;;;22.92;28.39;100953.84;1799378;79;21152;-68
2021/06/04 11:32:00;;;;;;;4.67;1.40;;;;;;;23.00;27.50;100944.61;1807851;79;21485;-69
2021/06/04 11:34:49;;;;;;;5.17;1.90;;;;;;;23.13;27.93;100939.46;1758435;80;21030;-68
2021/06/04 11:37:37;;;;;;;4.47;1.60;;;;;;;23.40;27.15;100943.02;1793052;78;21536;-68
2021/06/04 11:40:33;;;;;;;4.97;1.60;;;;;;;23.57;27.34;100936.61;1796761;79;21145;-68
2021/06/04 11:43:29;;;;;;;4.47;1.83;;;;;;;23.62;27.28;100939.11;1798376;78;21125;-68
2021/06/04 11:46:30;;;;;;;6.00;1.73;;;;;;;23.67;26.96;100934.03;1800352;78;20987;-68
2021/06/04 11:49:13;;;;;;;5.83;1.97;;;;;;;23.59;27.23;100939.81;1813724;77;21065;-69
2021/06/04 11:51:53;;;;;;;3.70;1.57;;;;;;;23.57;27.00;100940.70;1801691;77;21034;-69
2021/06/04 11:54:36;;;;;;;5.67;1.70;;;;;;;23.54;27.22;100935.91;1784712;78;21519;-68
2021/06/04 11:57:13;;;;;;;6.80;1.57;;;;;;;23.47;26.43;100941.69;1793898;77;21892;-67
2021/06/04 12:00:00;;;;;;;4.13;1.90;;;;;;;23.35;26.64;100926.06;1812062;77;21029;-68
2021/06/04 12:02:36;;;;;;;3.50;1.43;;;;;;;23.39;27.41;100940.04;1793209;78;21034;-68
2021/06/04 12:05:20;;;;;;;4.13;1.70;;;;;;;23.72;25.89;100927.58;1793027;78;21082;-69
2021/06/04 12:08:32;;;;;;;4.43;1.60;;;;;;;23.83;26.16;100934.22;1787442;78;22366;-69
2021/06/04 12:11:21;;;;;;;5.20;1.33;;;;;;;23.75;26.74;100923.61;1783303;78;21058;-68
2021/06/04 12:13:54;;;;;;;4.13;1.60;;;;;;;23.52;27.07;100938.73;1785975;78;21509;-68
2021/06/04 12:16:30;;;;;;;5.03;1.80;;;;;;;23.38;26.57;100942.55;1786490;78;21612;-68
2021/06/04 12:19:34;;;;;;;4.20;1.47;;;;;;;23.25;27.07;100938.17;1793437;78;21544;-69